sensor_id;sensor_type;location;lat;lon;timestamp;P1;durP1;ratioP1;P2;durP2;ratioP2
4311;SDS011;2169;49.086;9.284;2023-02-15T00:00:15;7.10;;;5.07;;
4311;SDS011;2169;49.086;9.284;2023-02-15T00:02:42;11.38;;;4.82;;
4311;SDS011;2169;49.086;9.284;2023-02-15T00:05:09;14.02;;;5.55;;
4311;SDS011;2169;49.086;9.284;2023-02-15T00:07:37;9.55;;;6.28;;
4311;SDS011;2169;49.086;9.284;2023-02-15T00:10:04;22.17;;;5.38;;
4311;SDS011;2169;49.086;9.284;2023-02-15T00:12:32;9.43;;;7.60;;
4311;SDS011;2169;49.086;9.284;2023-02-15T00:14:59;12.25;;;5.15;;
4311;SDS011;2169;49.086;9.284;2023-02-15T00:17:26;10.68;;;6.78;;
4311;SDS011;2169;49.086;9.284;2023-02-15T00:19:53;8.52;;;5.95;;
4311;SDS011;2169;49.086;9.284;2023-02-15T00:22:20;8.25;;;6.45;;
4311;SDS011;2169;49.086;9.284;2023-02-15T00:24:48;7.88;;;5.25;;
4311;SDS011;2169;49.086;9.284;2023-02-15T00:27:15;9.60;;;5.55;;
4311;SDS011;2169;49.086;9.284;2023-02-15T00:29:41;8.13;;;6.10;;
4311;SDS011;2169;49.086;9.284;2023-02-15T00:32:08;8.90;;;6.20;;
4311;SDS011;2169;49.086;9.284;2023-02-15T00:34:35;8.75;;;6.88;;
4311;SDS011;2169;49.086;9.284;2023-02-15T00:37:02;8.60;;;7.00;;
4311;SDS011;2169;49.086;9.284;2023-02-15T00:39:28;5.13;;;4.63;;
4311;SDS011;2169;49.086;9.284;2023-02-15T00:41:56;10.23;;;6.47;;
4311;SDS011;2169;49.086;9.284;2023-02-15T00:44:23;8.38;;;5.75;;
4311;SDS011;2169;49.086;9.284;2023-02-15T00:46:50;6.88;;;4.90;;
4311;SDS011;2169;49.086;9.284;2023-02-15T00:49:17;13.65;;;6.20;;
4311;SDS011;2169;49.086;9.284;2023-02-15T00:51:43;7.35;;;6.70;;
4311;SDS011;2169;49.086;9.284;2023-02-15T00:54:10;6.55;;;5.10;;
4311;SDS011;2169;49.086;9.284;2023-02-15T00:56:37;6.13;;;4.10;;
4311;SDS011;2169;49.086;9.284;2023-02-15T00:59:05;6.78;;;4.90;;
4311;SDS011;2169;49.086;9.284;2023-02-15T01:01:32;10.55;;;5.20;;
4311;SDS011;2169;49.086;9.284;2023-02-15T01:03:58;7.57;;;6.20;;
4311;SDS011;2169;49.086;9.284;2023-02-15T01:06:25;8.27;;;7.00;;
4311;SDS011;2169;49.086;9.284;2023-02-15T01:08:52;9.32;;;6.55;;
4311;SDS011;2169;49.086;9.284;2023-02-15T01:11:19;7.22;;;5.93;;
4311;SDS011;2169;49.086;9.284;2023-02-15T01:13:48;9.27;;;5.50;;
4311;SDS011;2169;49.086;9.284;2023-02-15T01:16:17;8.13;;;5.90;;
4311;SDS011;2169;49.086;9.284;2023-02-15T01:18:44;6.38;;;4.90;;
4311;SDS011;2169;49.086;9.284;2023-02-15T01:21:11;6.75;;;5.22;;
4311;SDS011;2169;49.086;9.284;2023-02-15T01:23:40;6.80;;;6.15;;
4311;SDS011;2169;49.086;9.284;2023-02-15T01:26:07;10.07;;;6.63;;
4311;SDS011;2169;49.086;9.284;2023-02-15T01:28:35;7.70;;;5.40;;
4311;SDS011;2169;49.086;9.284;2023-02-15T01:31:05;7.50;;;6.60;;
4311;SDS011;2169;49.086;9.284;2023-02-15T01:33:34;4.97;;;3.90;;
4311;SDS011;2169;49.086;9.284;2023-02-15T01:36:02;5.40;;;4.30;;
4311;SDS011;2169;49.086;9.284;2023-02-15T01:38:29;12.52;;;5.25;;
4311;SDS011;2169;49.086;9.284;2023-02-15T01:40:56;3.90;;;3.58;;
4311;SDS011;2169;49.086;9.284;2023-02-15T01:43:44;6.90;;;5.20;;
4311;SDS011;2169;49.086;9.284;2023-02-15T01:46:13;8.95;;;5.63;;
4311;SDS011;2169;49.086;9.284;2023-02-15T01:48:43;10.15;;;5.13;;
4311;SDS011;2169;49.086;9.284;2023-02-15T01:51:13;4.90;;;4.55;;
4311;SDS011;2169;49.086;9.284;2023-02-15T01:53:42;6.68;;;5.40;;
4311;SDS011;2169;49.086;9.284;2023-02-15T01:56:15;7.75;;;3.97;;
4311;SDS011;2169;49.086;9.284;2023-02-15T01:58:45;9.77;;;6.20;;
4311;SDS011;2169;49.086;9.284;2023-02-15T02:01:14;9.05;;;4.85;;
4311;SDS011;2169;49.086;9.284;2023-02-15T02:03:45;13.00;;;5.07;;
4311;SDS011;2169;49.086;9.284;2023-02-15T02:06:19;5.38;;;4.30;;
4311;SDS011;2169;49.086;9.284;2023-02-15T02:08:46;7.20;;;5.88;;
4311;SDS011;2169;49.086;9.284;2023-02-15T02:11:14;7.05;;;5.68;;
4311;SDS011;2169;49.086;9.284;2023-02-15T02:13:42;5.82;;;5.20;;
4311;SDS011;2169;49.086;9.284;2023-02-15T02:16:11;4.90;;;3.90;;
4311;SDS011;2169;49.086;9.284;2023-02-15T02:18:46;5.65;;;5.10;;
4311;SDS011;2169;49.086;9.284;2023-02-15T02:21:46;6.63;;;4.18;;
4311;SDS011;2169;49.086;9.284;2023-02-15T02:27:35;7.95;;;6.68;;
4311;SDS011;2169;49.086;9.284;2023-02-15T02:30:20;9.63;;;6.97;;
4311;SDS011;2169;49.086;9.284;2023-02-15T02:33:26;10.50;;;5.10;;
4311;SDS011;2169;49.086;9.284;2023-02-15T02:36:00;7.63;;;6.88;;
4311;SDS011;2169;49.086;9.284;2023-02-15T02:38:37;6.93;;;5.50;;
4311;SDS011;2169;49.086;9.284;2023-02-15T02:41:17;6.97;;;4.53;;
4311;SDS011;2169;49.086;9.284;2023-02-15T02:43:51;5.50;;;4.93;;
4311;SDS011;2169;49.086;9.284;2023-02-15T02:46:25;10.10;;;6.15;;
4311;SDS011;2169;49.086;9.284;2023-02-15T02:48:57;8.32;;;6.80;;
4311;SDS011;2169;49.086;9.284;2023-02-15T02:51:24;14.52;;;8.52;;
4311;SDS011;2169;49.086;9.284;2023-02-15T02:53:53;7.10;;;4.90;;
4311;SDS011;2169;49.086;9.284;2023-02-15T02:56:23;7.07;;;5.43;;
4311;SDS011;2169;49.086;9.284;2023-02-15T02:58:55;7.93;;;5.50;;
4311;SDS011;2169;49.086;9.284;2023-02-15T03:01:26;9.30;;;6.80;;
4311;SDS011;2169;49.086;9.284;2023-02-15T03:03:59;8.70;;;6.50;;
4311;SDS011;2169;49.086;9.284;2023-02-15T03:06:31;12.93;;;8.00;;
4311;SDS011;2169;49.086;9.284;2023-02-15T03:09:03;12.00;;;6.72;;
4311;SDS011;2169;49.086;9.284;2023-02-15T03:11:39;12.55;;;7.82;;
4311;SDS011;2169;49.086;9.284;2023-02-15T03:14:07;9.13;;;6.68;;
4311;SDS011;2169;49.086;9.284;2023-02-15T03:16:34;11.07;;;8.13;;
4311;SDS011;2169;49.086;9.284;2023-02-15T03:19:05;10.18;;;6.38;;
4311;SDS011;2169;49.086;9.284;2023-02-15T03:21:35;11.70;;;7.65;;
4311;SDS011;2169;49.086;9.284;2023-02-15T03:24:07;9.40;;;7.05;;
4311;SDS011;2169;49.086;9.284;2023-02-15T03:26:38;11.88;;;5.55;;
4311;SDS011;2169;49.086;9.284;2023-02-15T03:29:09;8.18;;;5.93;;
4311;SDS011;2169;49.086;9.284;2023-02-15T03:31:38;15.00;;;7.82;;
4311;SDS011;2169;49.086;9.284;2023-02-15T03:34:10;11.25;;;7.43;;
4311;SDS011;2169;49.086;9.284;2023-02-15T03:36:41;7.22;;;6.07;;
4311;SDS011;2169;49.086;9.284;2023-02-15T03:39:13;10.13;;;6.95;;
4311;SDS011;2169;49.086;9.284;2023-02-15T03:41:48;10.73;;;7.05;;
4311;SDS011;2169;49.086;9.284;2023-02-15T03:44:23;13.07;;;8.05;;
4311;SDS011;2169;49.086;9.284;2023-02-15T03:46:56;11.27;;;7.20;;
4311;SDS011;2169;49.086;9.284;2023-02-15T03:49:34;9.02;;;6.57;;
4311;SDS011;2169;49.086;9.284;2023-02-15T03:52:05;9.07;;;7.45;;
4311;SDS011;2169;49.086;9.284;2023-02-15T03:54:34;7.78;;;5.80;;
4311;SDS011;2169;49.086;9.284;2023-02-15T03:57:09;11.68;;;7.53;;
4311;SDS011;2169;49.086;9.284;2023-02-15T03:59:55;14.30;;;9.10;;
4311;SDS011;2169;49.086;9.284;2023-02-15T04:02:41;13.13;;;7.40;;
4311;SDS011;2169;49.086;9.284;2023-02-15T04:05:14;7.07;;;6.47;;
4311;SDS011;2169;49.086;9.284;2023-02-15T04:07:41;9.52;;;6.25;;
4311;SDS011;2169;49.086;9.284;2023-02-15T04:10:08;10.32;;;6.65;;
4311;SDS011;2169;49.086;9.284;2023-02-15T04:12:53;9.57;;;6.70;;
4311;SDS011;2169;49.086;9.284;2023-02-15T04:15:19;14.38;;;9.40;;
4311;SDS011;2169;49.086;9.284;2023-02-15T04:18:05;11.68;;;7.85;;
4311;SDS011;2169;49.086;9.284;2023-02-15T04:20:33;5.85;;;5.07;;
4311;SDS011;2169;49.086;9.284;2023-02-15T04:23:17;9.23;;;5.72;;
4311;SDS011;2169;49.086;9.284;2023-02-15T04:26:02;11.10;;;7.50;;
4311;SDS011;2169;49.086;9.284;2023-02-15T04:28:29;15.68;;;7.82;;
4311;SDS011;2169;49.086;9.284;2023-02-15T04:30:56;18.38;;;7.78;;
4311;SDS011;2169;49.086;9.284;2023-02-15T04:33:23;9.07;;;6.70;;
4311;SDS011;2169;49.086;9.284;2023-02-15T04:35:51;8.13;;;6.55;;
4311;SDS011;2169;49.086;9.284;2023-02-15T04:38:18;12.45;;;8.05;;
4311;SDS011;2169;49.086;9.284;2023-02-15T04:40:49;16.25;;;8.50;;
4311;SDS011;2169;49.086;9.284;2023-02-15T04:43:16;12.07;;;7.93;;
4311;SDS011;2169;49.086;9.284;2023-02-15T04:45:47;11.68;;;7.05;;
4311;SDS011;2169;49.086;9.284;2023-02-15T04:48:14;16.25;;;6.03;;
4311;SDS011;2169;49.086;9.284;2023-02-15T04:50:41;14.02;;;8.43;;
4311;SDS011;2169;49.086;9.284;2023-02-15T04:53:10;9.80;;;6.82;;
4311;SDS011;2169;49.086;9.284;2023-02-15T04:55:37;11.40;;;8.00;;
4311;SDS011;2169;49.086;9.284;2023-02-15T04:58:04;12.93;;;7.65;;
4311;SDS011;2169;49.086;9.284;2023-02-15T05:00:31;14.90;;;9.63;;
4311;SDS011;2169;49.086;9.284;2023-02-15T05:02:57;10.98;;;6.55;;
4311;SDS011;2169;49.086;9.284;2023-02-15T05:05:24;10.30;;;6.55;;
4311;SDS011;2169;49.086;9.284;2023-02-15T05:07:51;11.40;;;6.47;;
4311;SDS011;2169;49.086;9.284;2023-02-15T05:10:20;10.07;;;6.50;;
4311;SDS011;2169;49.086;9.284;2023-02-15T05:12:47;14.55;;;7.53;;
4311;SDS011;2169;49.086;9.284;2023-02-15T05:15:14;26.85;;;5.93;;
4311;SDS011;2169;49.086;9.284;2023-02-15T05:17:41;14.52;;;8.07;;
4311;SDS011;2169;49.086;9.284;2023-02-15T05:20:08;13.25;;;7.70;;
4311;SDS011;2169;49.086;9.284;2023-02-15T05:22:35;19.02;;;8.13;;
4311;SDS011;2169;49.086;9.284;2023-02-15T05:25:02;12.48;;;7.55;;
4311;SDS011;2169;49.086;9.284;2023-02-15T05:27:48;22.40;;;9.30;;
4311;SDS011;2169;49.086;9.284;2023-02-15T05:30:33;9.70;;;6.93;;
4311;SDS011;2169;49.086;9.284;2023-02-15T05:33:00;11.43;;;6.18;;
4311;SDS011;2169;49.086;9.284;2023-02-15T05:35:28;7.95;;;7.03;;
4311;SDS011;2169;49.086;9.284;2023-02-15T05:37:55;19.42;;;9.77;;
4311;SDS011;2169;49.086;9.284;2023-02-15T05:40:22;13.07;;;8.95;;
4311;SDS011;2169;49.086;9.284;2023-02-15T05:42:50;9.38;;;6.93;;
4311;SDS011;2169;49.086;9.284;2023-02-15T05:45:17;14.68;;;7.65;;
4311;SDS011;2169;49.086;9.284;2023-02-15T05:47:44;9.50;;;6.45;;
4311;SDS011;2169;49.086;9.284;2023-02-15T05:50:11;15.75;;;7.10;;
4311;SDS011;2169;49.086;9.284;2023-02-15T05:52:38;14.98;;;8.15;;
4311;SDS011;2169;49.086;9.284;2023-02-15T05:55:05;9.23;;;5.85;;
4311;SDS011;2169;49.086;9.284;2023-02-15T05:57:33;10.63;;;7.88;;
4311;SDS011;2169;49.086;9.284;2023-02-15T06:00:02;8.57;;;5.28;;
4311;SDS011;2169;49.086;9.284;2023-02-15T06:02:30;12.60;;;6.43;;
4311;SDS011;2169;49.086;9.284;2023-02-15T06:04:59;24.55;;;8.35;;
4311;SDS011;2169;49.086;9.284;2023-02-15T06:07:27;12.25;;;6.85;;
4311;SDS011;2169;49.086;9.284;2023-02-15T06:09:54;13.65;;;8.73;;
4311;SDS011;2169;49.086;9.284;2023-02-15T06:12:21;9.90;;;6.03;;
4311;SDS011;2169;49.086;9.284;2023-02-15T06:14:49;9.25;;;5.82;;
4311;SDS011;2169;49.086;9.284;2023-02-15T06:17:17;9.15;;;5.75;;
4311;SDS011;2169;49.086;9.284;2023-02-15T06:19:44;10.57;;;7.15;;
4311;SDS011;2169;49.086;9.284;2023-02-15T06:22:11;15.18;;;7.05;;
4311;SDS011;2169;49.086;9.284;2023-02-15T06:24:39;10.73;;;7.07;;
4311;SDS011;2169;49.086;9.284;2023-02-15T06:27:08;13.70;;;7.40;;
4311;SDS011;2169;49.086;9.284;2023-02-15T06:29:35;8.55;;;6.18;;
4311;SDS011;2169;49.086;9.284;2023-02-15T06:32:03;17.65;;;9.27;;
4311;SDS011;2169;49.086;9.284;2023-02-15T06:34:33;11.50;;;6.72;;
4311;SDS011;2169;49.086;9.284;2023-02-15T06:37:00;48.65;;;8.82;;
4311;SDS011;2169;49.086;9.284;2023-02-15T06:39:27;12.88;;;7.10;;
4311;SDS011;2169;49.086;9.284;2023-02-15T06:41:54;11.73;;;8.65;;
4311;SDS011;2169;49.086;9.284;2023-02-15T06:44:21;9.00;;;6.00;;
4311;SDS011;2169;49.086;9.284;2023-02-15T06:46:48;7.20;;;6.07;;
4311;SDS011;2169;49.086;9.284;2023-02-15T06:49:15;11.93;;;8.40;;
4311;SDS011;2169;49.086;9.284;2023-02-15T06:51:58;11.95;;;7.13;;
4311;SDS011;2169;49.086;9.284;2023-02-15T06:54:34;11.80;;;5.88;;
4311;SDS011;2169;49.086;9.284;2023-02-15T06:57:01;7.40;;;6.70;;
4311;SDS011;2169;49.086;9.284;2023-02-15T06:59:28;8.48;;;5.28;;
4311;SDS011;2169;49.086;9.284;2023-02-15T07:01:55;14.55;;;10.20;;
4311;SDS011;2169;49.086;9.284;2023-02-15T07:04:22;10.60;;;7.30;;
4311;SDS011;2169;49.086;9.284;2023-02-15T07:06:50;12.63;;;7.97;;
4311;SDS011;2169;49.086;9.284;2023-02-15T07:09:17;7.40;;;6.40;;
4311;SDS011;2169;49.086;9.284;2023-02-15T07:11:44;19.27;;;7.53;;
4311;SDS011;2169;49.086;9.284;2023-02-15T07:14:28;7.40;;;5.97;;
4311;SDS011;2169;49.086;9.284;2023-02-15T07:16:55;8.35;;;5.93;;
4311;SDS011;2169;49.086;9.284;2023-02-15T07:19:22;11.02;;;7.47;;
4311;SDS011;2169;49.086;9.284;2023-02-15T07:21:49;13.15;;;7.20;;
4311;SDS011;2169;49.086;9.284;2023-02-15T07:24:17;11.15;;;8.40;;
4311;SDS011;2169;49.086;9.284;2023-02-15T07:26:44;19.70;;;10.27;;
4311;SDS011;2169;49.086;9.284;2023-02-15T07:29:11;10.57;;;6.40;;
4311;SDS011;2169;49.086;9.284;2023-02-15T07:31:38;11.63;;;7.60;;
4311;SDS011;2169;49.086;9.284;2023-02-15T07:34:05;12.32;;;6.55;;
4311;SDS011;2169;49.086;9.284;2023-02-15T07:36:32;10.60;;;7.10;;
4311;SDS011;2169;49.086;9.284;2023-02-15T07:39:01;10.57;;;6.70;;
4311;SDS011;2169;49.086;9.284;2023-02-15T07:41:28;9.38;;;8.32;;
4311;SDS011;2169;49.086;9.284;2023-02-15T07:43:54;19.25;;;6.82;;
4311;SDS011;2169;49.086;9.284;2023-02-15T07:46:21;12.60;;;8.23;;
4311;SDS011;2169;49.086;9.284;2023-02-15T07:48:48;15.43;;;8.48;;
4311;SDS011;2169;49.086;9.284;2023-02-15T07:51:15;9.23;;;8.30;;
4311;SDS011;2169;49.086;9.284;2023-02-15T07:53:42;12.50;;;7.50;;
4311;SDS011;2169;49.086;9.284;2023-02-15T07:56:11;9.02;;;7.30;;
4311;SDS011;2169;49.086;9.284;2023-02-15T07:58:39;8.95;;;7.55;;
4311;SDS011;2169;49.086;9.284;2023-02-15T08:01:21;9.45;;;6.75;;
4311;SDS011;2169;49.086;9.284;2023-02-15T08:03:49;10.48;;;7.07;;
4311;SDS011;2169;49.086;9.284;2023-02-15T08:06:16;17.70;;;9.07;;
4311;SDS011;2169;49.086;9.284;2023-02-15T08:08:43;14.98;;;8.57;;
4311;SDS011;2169;49.086;9.284;2023-02-15T08:11:16;14.95;;;8.07;;
4311;SDS011;2169;49.086;9.284;2023-02-15T08:13:54;10.63;;;8.88;;
4311;SDS011;2169;49.086;9.284;2023-02-15T08:16:24;11.50;;;6.95;;
4311;SDS011;2169;49.086;9.284;2023-02-15T08:18:53;12.77;;;7.43;;
4311;SDS011;2169;49.086;9.284;2023-02-15T08:21:20;10.90;;;8.13;;
4311;SDS011;2169;49.086;9.284;2023-02-15T08:23:48;14.10;;;8.07;;
4311;SDS011;2169;49.086;9.284;2023-02-15T08:26:16;15.25;;;9.18;;
4311;SDS011;2169;49.086;9.284;2023-02-15T08:28:43;9.77;;;6.90;;
4311;SDS011;2169;49.086;9.284;2023-02-15T08:31:11;11.70;;;8.10;;
4311;SDS011;2169;49.086;9.284;2023-02-15T08:33:40;10.25;;;7.20;;
4311;SDS011;2169;49.086;9.284;2023-02-15T08:36:09;14.18;;;9.02;;
4311;SDS011;2169;49.086;9.284;2023-02-15T08:38:38;16.88;;;10.00;;
4311;SDS011;2169;49.086;9.284;2023-02-15T08:41:12;10.57;;;7.05;;
4311;SDS011;2169;49.086;9.284;2023-02-15T08:43:42;13.05;;;7.65;;
4311;SDS011;2169;49.086;9.284;2023-02-15T08:46:10;12.07;;;9.23;;
4311;SDS011;2169;49.086;9.284;2023-02-15T08:48:37;13.27;;;8.15;;
4311;SDS011;2169;49.086;9.284;2023-02-15T08:51:05;18.75;;;9.75;;
4311;SDS011;2169;49.086;9.284;2023-02-15T08:53:35;10.40;;;6.80;;
4311;SDS011;2169;49.086;9.284;2023-02-15T08:56:02;11.27;;;7.43;;
4311;SDS011;2169;49.086;9.284;2023-02-15T08:58:30;13.45;;;8.30;;
4311;SDS011;2169;49.086;9.284;2023-02-15T09:00:58;11.63;;;7.45;;
4311;SDS011;2169;49.086;9.284;2023-02-15T09:03:34;19.50;;;9.00;;
4311;SDS011;2169;49.086;9.284;2023-02-15T09:06:01;20.30;;;9.88;;
4311;SDS011;2169;49.086;9.284;2023-02-15T09:08:28;14.38;;;9.73;;
4311;SDS011;2169;49.086;9.284;2023-02-15T09:11:03;15.05;;;8.40;;
4311;SDS011;2169;49.086;9.284;2023-02-15T09:13:31;13.77;;;9.23;;
4311;SDS011;2169;49.086;9.284;2023-02-15T09:16:00;24.70;;;11.95;;
4311;SDS011;2169;49.086;9.284;2023-02-15T09:18:29;17.38;;;9.65;;
4311;SDS011;2169;49.086;9.284;2023-02-15T09:20:57;14.93;;;10.52;;
4311;SDS011;2169;49.086;9.284;2023-02-15T09:23:29;14.23;;;10.60;;
4311;SDS011;2169;49.086;9.284;2023-02-15T09:25:56;14.82;;;10.50;;
4311;SDS011;2169;49.086;9.284;2023-02-15T09:28:23;15.80;;;9.23;;
4311;SDS011;2169;49.086;9.284;2023-02-15T09:30:50;10.88;;;8.93;;
4311;SDS011;2169;49.086;9.284;2023-02-15T09:33:19;14.02;;;8.15;;
4311;SDS011;2169;49.086;9.284;2023-02-15T09:35:47;12.80;;;9.68;;
4311;SDS011;2169;49.086;9.284;2023-02-15T09:38:14;14.25;;;9.20;;
4311;SDS011;2169;49.086;9.284;2023-02-15T09:40:42;12.93;;;7.28;;
4311;SDS011;2169;49.086;9.284;2023-02-15T09:43:24;13.73;;;8.65;;
4311;SDS011;2169;49.086;9.284;2023-02-15T09:46:09;10.77;;;8.02;;
4311;SDS011;2169;49.086;9.284;2023-02-15T09:48:55;15.15;;;9.13;;
4311;SDS011;2169;49.086;9.284;2023-02-15T09:51:39;14.50;;;9.75;;
4311;SDS011;2169;49.086;9.284;2023-02-15T09:54:23;20.33;;;9.35;;
4311;SDS011;2169;49.086;9.284;2023-02-15T09:57:08;12.18;;;8.02;;
4311;SDS011;2169;49.086;9.284;2023-02-15T09:59:48;17.50;;;9.45;;
4311;SDS011;2169;49.086;9.284;2023-02-15T10:02:26;16.60;;;9.75;;
4311;SDS011;2169;49.086;9.284;2023-02-15T10:05:07;14.85;;;9.65;;
4311;SDS011;2169;49.086;9.284;2023-02-15T10:07:47;17.00;;;8.95;;
4311;SDS011;2169;49.086;9.284;2023-02-15T10:10:25;19.92;;;10.82;;
4311;SDS011;2169;49.086;9.284;2023-02-15T10:13:05;14.73;;;9.70;;
4311;SDS011;2169;49.086;9.284;2023-02-15T10:15:50;14.68;;;9.20;;
4311;SDS011;2169;49.086;9.284;2023-02-15T10:21:27;18.95;;;10.45;;
4311;SDS011;2169;49.086;9.284;2023-02-15T10:24:12;17.35;;;10.63;;
4311;SDS011;2169;49.086;9.284;2023-02-15T10:26:51;18.63;;;10.65;;
4311;SDS011;2169;49.086;9.284;2023-02-15T10:29:25;21.25;;;12.23;;
4311;SDS011;2169;49.086;9.284;2023-02-15T10:32:02;13.35;;;8.80;;
4311;SDS011;2169;49.086;9.284;2023-02-15T10:34:37;12.98;;;9.07;;
4311;SDS011;2169;49.086;9.284;2023-02-15T10:37:15;21.90;;;11.50;;
4311;SDS011;2169;49.086;9.284;2023-02-15T10:39:59;25.65;;;10.68;;
4311;SDS011;2169;49.086;9.284;2023-02-15T10:42:36;21.25;;;12.77;;
4311;SDS011;2169;49.086;9.284;2023-02-15T10:45:13;16.20;;;10.07;;
4311;SDS011;2169;49.086;9.284;2023-02-15T10:47:53;18.60;;;11.30;;
4311;SDS011;2169;49.086;9.284;2023-02-15T10:50:35;20.67;;;11.70;;
4311;SDS011;2169;49.086;9.284;2023-02-15T10:53:16;13.68;;;8.77;;
4311;SDS011;2169;49.086;9.284;2023-02-15T10:55:58;19.95;;;9.95;;
4311;SDS011;2169;49.086;9.284;2023-02-15T10:58:42;10.50;;;7.88;;
4311;SDS011;2169;49.086;9.284;2023-02-15T11:01:18;12.37;;;8.90;;
4311;SDS011;2169;49.086;9.284;2023-02-15T11:04:00;15.03;;;10.30;;
4311;SDS011;2169;49.086;9.284;2023-02-15T11:06:56;36.50;;;11.87;;
4311;SDS011;2169;49.086;9.284;2023-02-15T11:09:33;29.40;;;13.13;;
4311;SDS011;2169;49.086;9.284;2023-02-15T11:12:08;24.87;;;11.80;;
4311;SDS011;2169;49.086;9.284;2023-02-15T11:14:40;19.52;;;11.65;;
4311;SDS011;2169;49.086;9.284;2023-02-15T11:17:14;15.77;;;10.18;;
4311;SDS011;2169;49.086;9.284;2023-02-15T11:19:46;14.97;;;10.50;;
4311;SDS011;2169;49.086;9.284;2023-02-15T11:22:20;19.07;;;10.73;;
4311;SDS011;2169;49.086;9.284;2023-02-15T11:24:49;26.63;;;13.40;;
4311;SDS011;2169;49.086;9.284;2023-02-15T11:27:20;20.50;;;11.43;;
4311;SDS011;2169;49.086;9.284;2023-02-15T11:29:51;15.07;;;10.87;;
4311;SDS011;2169;49.086;9.284;2023-02-15T11:32:23;11.57;;;9.63;;
4311;SDS011;2169;49.086;9.284;2023-02-15T11:34:55;17.40;;;11.23;;
4311;SDS011;2169;49.086;9.284;2023-02-15T11:37:27;20.90;;;12.27;;
4311;SDS011;2169;49.086;9.284;2023-02-15T11:40:00;10.03;;;9.10;;
4311;SDS011;2169;49.086;9.284;2023-02-15T11:42:28;17.30;;;14.20;;
4311;SDS011;2169;49.086;9.284;2023-02-15T11:44:58;25.87;;;12.03;;
4311;SDS011;2169;49.086;9.284;2023-02-15T11:47:28;15.88;;;11.18;;
4311;SDS011;2169;49.086;9.284;2023-02-15T11:49:56;16.57;;;11.53;;
4311;SDS011;2169;49.086;9.284;2023-02-15T11:52:23;16.23;;;9.03;;
4311;SDS011;2169;49.086;9.284;2023-02-15T11:54:51;17.27;;;10.87;;
4311;SDS011;2169;49.086;9.284;2023-02-15T11:57:23;19.97;;;11.70;;
4311;SDS011;2169;49.086;9.284;2023-02-15T11:59:56;19.83;;;11.73;;
4311;SDS011;2169;49.086;9.284;2023-02-15T12:02:29;21.60;;;11.13;;
4311;SDS011;2169;49.086;9.284;2023-02-15T12:04:58;16.43;;;9.60;;
4311;SDS011;2169;49.086;9.284;2023-02-15T12:07:35;20.30;;;11.18;;
4311;SDS011;2169;49.086;9.284;2023-02-15T12:10:17;27.10;;;14.67;;
4311;SDS011;2169;49.086;9.284;2023-02-15T12:12:54;23.97;;;13.23;;
4311;SDS011;2169;49.086;9.284;2023-02-15T12:15:39;19.93;;;10.70;;
4311;SDS011;2169;49.086;9.284;2023-02-15T12:18:17;24.93;;;13.10;;
4311;SDS011;2169;49.086;9.284;2023-02-15T12:20:46;23.00;;;13.87;;
4311;SDS011;2169;49.086;9.284;2023-02-15T12:23:21;20.57;;;12.63;;
4311;SDS011;2169;49.086;9.284;2023-02-15T12:25:54;19.97;;;13.03;;
4311;SDS011;2169;49.086;9.284;2023-02-15T12:28:30;25.90;;;13.20;;
4311;SDS011;2169;49.086;9.284;2023-02-15T12:31:18;23.33;;;12.60;;
4311;SDS011;2169;49.086;9.284;2023-02-15T12:33:50;19.30;;;13.30;;
4311;SDS011;2169;49.086;9.284;2023-02-15T12:36:20;18.97;;;12.50;;
4311;SDS011;2169;49.086;9.284;2023-02-15T12:39:05;23.10;;;12.17;;
4311;SDS011;2169;49.086;9.284;2023-02-15T12:41:44;27.00;;;13.23;;
4311;SDS011;2169;49.086;9.284;2023-02-15T12:44:18;23.30;;;12.00;;
4311;SDS011;2169;49.086;9.284;2023-02-15T12:46:55;20.20;;;14.17;;
4311;SDS011;2169;49.086;9.284;2023-02-15T12:49:24;20.57;;;11.73;;
4311;SDS011;2169;49.086;9.284;2023-02-15T12:51:53;19.37;;;11.90;;
4311;SDS011;2169;49.086;9.284;2023-02-15T12:54:35;16.97;;;12.00;;
4311;SDS011;2169;49.086;9.284;2023-02-15T12:57:21;17.13;;;13.40;;
4311;SDS011;2169;49.086;9.284;2023-02-15T12:59:56;18.43;;;12.90;;
4311;SDS011;2169;49.086;9.284;2023-02-15T13:02:25;31.50;;;17.00;;
4311;SDS011;2169;49.086;9.284;2023-02-15T13:05:04;24.83;;;14.13;;
4311;SDS011;2169;49.086;9.284;2023-02-15T13:07:44;24.93;;;14.07;;
4311;SDS011;2169;49.086;9.284;2023-02-15T13:10:18;22.53;;;12.40;;
4311;SDS011;2169;49.086;9.284;2023-02-15T13:12:49;27.67;;;14.07;;
4311;SDS011;2169;49.086;9.284;2023-02-15T13:15:27;27.27;;;13.20;;
4311;SDS011;2169;49.086;9.284;2023-02-15T13:17:59;21.47;;;13.00;;
4311;SDS011;2169;49.086;9.284;2023-02-15T13:20:27;29.07;;;13.27;;
4311;SDS011;2169;49.086;9.284;2023-02-15T13:22:57;31.33;;;16.13;;
4311;SDS011;2169;49.086;9.284;2023-02-15T13:25:27;25.77;;;12.43;;
4311;SDS011;2169;49.086;9.284;2023-02-15T13:28:00;22.17;;;13.67;;
4311;SDS011;2169;49.086;9.284;2023-02-15T13:30:31;21.30;;;13.77;;
4311;SDS011;2169;49.086;9.284;2023-02-15T13:33:02;20.50;;;13.50;;
4311;SDS011;2169;49.086;9.284;2023-02-15T13:35:34;25.33;;;13.53;;
4311;SDS011;2169;49.086;9.284;2023-02-15T13:38:16;23.20;;;14.00;;
4311;SDS011;2169;49.086;9.284;2023-02-15T13:40:55;24.20;;;13.37;;
4311;SDS011;2169;49.086;9.284;2023-02-15T13:43:33;30.33;;;18.07;;
4311;SDS011;2169;49.086;9.284;2023-02-15T13:46:14;22.53;;;13.77;;
4311;SDS011;2169;49.086;9.284;2023-02-15T13:48:51;22.23;;;13.80;;
4311;SDS011;2169;49.086;9.284;2023-02-15T13:51:30;24.83;;;14.63;;
4311;SDS011;2169;49.086;9.284;2023-02-15T13:54:07;22.17;;;12.17;;
4311;SDS011;2169;49.086;9.284;2023-02-15T13:56:54;24.67;;;14.23;;
4311;SDS011;2169;49.086;9.284;2023-02-15T13:59:33;31.00;;;14.40;;
4311;SDS011;2169;49.086;9.284;2023-02-15T14:08:02;19.93;;;12.90;;
4311;SDS011;2169;49.086;9.284;2023-02-15T14:13:43;21.77;;;12.17;;
4311;SDS011;2169;49.086;9.284;2023-02-15T14:16:24;26.60;;;16.10;;
4311;SDS011;2169;49.086;9.284;2023-02-15T14:21:29;31.40;;;13.80;;
4311;SDS011;2169;49.086;9.284;2023-02-15T14:24:01;25.77;;;12.93;;
4311;SDS011;2169;49.086;9.284;2023-02-15T14:26:42;29.43;;;15.73;;
4311;SDS011;2169;49.086;9.284;2023-02-15T14:29:18;24.20;;;15.73;;
4311;SDS011;2169;49.086;9.284;2023-02-15T14:31:52;36.17;;;13.90;;
4311;SDS011;2169;49.086;9.284;2023-02-15T14:34:22;23.97;;;14.00;;
4311;SDS011;2169;49.086;9.284;2023-02-15T14:36:52;21.07;;;13.90;;
4311;SDS011;2169;49.086;9.284;2023-02-15T14:39:23;19.03;;;13.60;;
4311;SDS011;2169;49.086;9.284;2023-02-15T14:42:15;26.40;;;15.00;;
4311;SDS011;2169;49.086;9.284;2023-02-15T14:44:47;29.67;;;15.20;;
4311;SDS011;2169;49.086;9.284;2023-02-15T14:47:19;31.90;;;16.60;;
4311;SDS011;2169;49.086;9.284;2023-02-15T14:49:48;35.07;;;16.70;;
4311;SDS011;2169;49.086;9.284;2023-02-15T14:52:16;22.57;;;15.47;;
4311;SDS011;2169;49.086;9.284;2023-02-15T14:54:53;30.27;;;17.30;;
4311;SDS011;2169;49.086;9.284;2023-02-15T15:00:32;20.37;;;13.87;;
4311;SDS011;2169;49.086;9.284;2023-02-15T15:03:09;25.00;;;13.80;;
4311;SDS011;2169;49.086;9.284;2023-02-15T15:05:47;22.93;;;12.80;;
4311;SDS011;2169;49.086;9.284;2023-02-15T15:08:22;24.60;;;12.80;;
4311;SDS011;2169;49.086;9.284;2023-02-15T15:10:53;34.00;;;15.63;;
4311;SDS011;2169;49.086;9.284;2023-02-15T15:13:37;22.57;;;12.20;;
4311;SDS011;2169;49.086;9.284;2023-02-15T15:19:01;28.00;;;12.83;;
4311;SDS011;2169;49.086;9.284;2023-02-15T15:27:42;23.50;;;13.33;;
4311;SDS011;2169;49.086;9.284;2023-02-15T15:46:11;30.73;;;12.20;;
4311;SDS011;2169;49.086;9.284;2023-02-15T15:48:47;27.10;;;13.80;;
4311;SDS011;2169;49.086;9.284;2023-02-15T15:51:14;19.63;;;11.53;;
4311;SDS011;2169;49.086;9.284;2023-02-15T15:53:45;16.70;;;12.63;;
4311;SDS011;2169;49.086;9.284;2023-02-15T15:56:18;25.57;;;15.40;;
4311;SDS011;2169;49.086;9.284;2023-02-15T15:58:48;22.10;;;13.53;;
4311;SDS011;2169;49.086;9.284;2023-02-15T16:01:22;24.37;;;15.57;;
4311;SDS011;2169;49.086;9.284;2023-02-15T16:03:53;27.30;;;15.80;;
4311;SDS011;2169;49.086;9.284;2023-02-15T16:06:28;30.80;;;14.37;;
4311;SDS011;2169;49.086;9.284;2023-02-15T16:08:56;30.67;;;14.10;;
4311;SDS011;2169;49.086;9.284;2023-02-15T16:11:23;33.53;;;15.07;;
4311;SDS011;2169;49.086;9.284;2023-02-15T16:13:53;33.07;;;16.30;;